Terminal Aerodrome Forecast
Issued by NWS Denver/Boulder, CO

Home | Current Version | Previous Version | Text Only | Print | Product List | Glossary On
Versions: 1 2 3 4 5 6 7 8 9 10 11 12 13 14 15 16 17 18 19 20 21 22 23 24 25 26 27 28 29 30 31 32 33 34 35 36 37 38 39 40 41 42 43 44 45 46 47 48 49 50
000
FTUS45 KBOU 012117 AAB
TAFDEN
TAF AMD
KDEN 012117Z 0121/0224 30014G22KT P6SM SCT040 BKN060
      TEMPO 0121/0122 27025G45KT 4SM TSRA SCT020 BKN040CB OVC060
     FM020000 35014G22KT P6SM SCT015 BKN040 OVC060
      TEMPO 0200/0204 4SM -SHRA BR BKN015 OVC040
     FM020400 27008KT P6SM VCSH SCT045 BKN060
     FM021200 29006KT P6SM VCFG FEW050 SCT070 BKN120
     FM021600 23008KT P6SM FEW120 SCT200=

USA.gov is the U.S. government's official web portal to all federal, state and local government web resources and services.